sensor_id;sensor_type;location;lat;lon;timestamp;P1;durP1;ratioP1;P2;durP2;ratioP2
64186;SDS011;50491;39.484;-8.540;2023-01-10T00:01:19;9.23;;;6.82;;
64186;SDS011;50491;39.484;-8.540;2023-01-10T00:03:38;10.25;;;6.80;;
64186;SDS011;50491;39.484;-8.540;2023-01-10T00:05:41;15.32;;;7.65;;
64186;SDS011;50491;39.484;-8.540;2023-01-10T00:08:30;14.73;;;7.00;;
64186;SDS011;50491;39.484;-8.540;2023-01-10T00:10:52;9.68;;;6.82;;
64186;SDS011;50491;39.484;-8.540;2023-01-10T00:13:14;9.73;;;6.65;;
64186;SDS011;50491;39.484;-8.540;2023-01-10T00:23:30;8.48;;;5.82;;
64186;SDS011;50491;39.484;-8.540;2023-01-10T00:25:49;8.30;;;4.88;;
64186;SDS011;50491;39.484;-8.540;2023-01-10T00:28:27;11.80;;;6.35;;
64186;SDS011;50491;39.484;-8.540;2023-01-10T00:30:28;9.57;;;5.82;;
64186;SDS011;50491;39.484;-8.540;2023-01-10T00:32:48;9.38;;;5.53;;
64186;SDS011;50491;39.484;-8.540;2023-01-10T00:34:48;10.32;;;5.80;;
64186;SDS011;50491;39.484;-8.540;2023-01-10T00:36:49;9.82;;;6.28;;
64186;SDS011;50491;39.484;-8.540;2023-01-10T00:38:50;12.52;;;6.07;;
64186;SDS011;50491;39.484;-8.540;2023-01-10T00:41:33;12.00;;;6.20;;
64186;SDS011;50491;39.484;-8.540;2023-01-10T00:43:58;9.00;;;6.05;;
64186;SDS011;50491;39.484;-8.540;2023-01-10T00:45:59;9.05;;;5.85;;
64186;SDS011;50491;39.484;-8.540;2023-01-10T00:48:20;8.60;;;6.00;;
64186;SDS011;50491;39.484;-8.540;2023-01-10T00:50:20;8.68;;;5.82;;
64186;SDS011;50491;39.484;-8.540;2023-01-10T00:52:42;9.57;;;5.20;;
64186;SDS011;50491;39.484;-8.540;2023-01-10T00:54:44;8.05;;;6.03;;
64186;SDS011;50491;39.484;-8.540;2023-01-10T00:56:45;8.68;;;5.90;;
64186;SDS011;50491;39.484;-8.540;2023-01-10T00:59:05;7.18;;;5.63;;
64186;SDS011;50491;39.484;-8.540;2023-01-10T01:01:08;10.93;;;5.97;;
64186;SDS011;50491;39.484;-8.540;2023-01-10T01:03:08;10.80;;;6.78;;
64186;SDS011;50491;39.484;-8.540;2023-01-10T01:05:11;11.48;;;6.00;;
64186;SDS011;50491;39.484;-8.540;2023-01-10T01:07:16;9.43;;;6.38;;
64186;SDS011;50491;39.484;-8.540;2023-01-10T01:09:19;9.63;;;5.65;;
64186;SDS011;50491;39.484;-8.540;2023-01-10T01:11:39;9.65;;;6.28;;
64186;SDS011;50491;39.484;-8.540;2023-01-10T01:13:42;13.15;;;6.18;;
64186;SDS011;50491;39.484;-8.540;2023-01-10T01:16:05;10.45;;;5.88;;
64186;SDS011;50491;39.484;-8.540;2023-01-10T01:18:06;13.77;;;6.95;;
64186;SDS011;50491;39.484;-8.540;2023-01-10T01:20:09;12.60;;;6.40;;
64186;SDS011;50491;39.484;-8.540;2023-01-10T01:22:12;8.93;;;6.55;;
64186;SDS011;50491;39.484;-8.540;2023-01-10T01:24:34;11.73;;;6.47;;
64186;SDS011;50491;39.484;-8.540;2023-01-10T01:26:35;10.40;;;6.40;;
64186;SDS011;50491;39.484;-8.540;2023-01-10T01:28:36;9.02;;;6.47;;
64186;SDS011;50491;39.484;-8.540;2023-01-10T01:30:37;12.85;;;7.57;;
64186;SDS011;50491;39.484;-8.540;2023-01-10T01:32:38;10.63;;;6.78;;
64186;SDS011;50491;39.484;-8.540;2023-01-10T01:34:57;11.98;;;8.30;;
64186;SDS011;50491;39.484;-8.540;2023-01-10T01:37:18;12.82;;;6.97;;
64186;SDS011;50491;39.484;-8.540;2023-01-10T01:39:19;11.65;;;6.78;;
64186;SDS011;50491;39.484;-8.540;2023-01-10T01:44:28;14.93;;;7.30;;
64186;SDS011;50491;39.484;-8.540;2023-01-10T01:49:14;15.65;;;8.38;;
64186;SDS011;50491;39.484;-8.540;2023-01-10T01:51:33;20.13;;;8.82;;
64186;SDS011;50491;39.484;-8.540;2023-01-10T02:01:51;12.93;;;8.45;;
64186;SDS011;50491;39.484;-8.540;2023-01-10T02:06:47;16.08;;;9.00;;
64186;SDS011;50491;39.484;-8.540;2023-01-10T02:09:02;17.60;;;9.85;;
64186;SDS011;50491;39.484;-8.540;2023-01-10T02:11:29;12.00;;;7.85;;
64186;SDS011;50491;39.484;-8.540;2023-01-10T02:13:30;17.20;;;8.05;;
64186;SDS011;50491;39.484;-8.540;2023-01-10T02:17:50;15.85;;;8.85;;
64186;SDS011;50491;39.484;-8.540;2023-01-10T02:20:10;12.98;;;8.00;;
64186;SDS011;50491;39.484;-8.540;2023-01-10T02:22:40;12.68;;;8.40;;
64186;SDS011;50491;39.484;-8.540;2023-01-10T02:35:14;13.38;;;7.65;;
64186;SDS011;50491;39.484;-8.540;2023-01-10T02:39:57;14.48;;;8.85;;
64186;SDS011;50491;39.484;-8.540;2023-01-10T02:44:21;13.85;;;8.48;;
64186;SDS011;50491;39.484;-8.540;2023-01-10T02:46:25;10.73;;;7.78;;
64186;SDS011;50491;39.484;-8.540;2023-01-10T02:48:31;12.25;;;8.60;;
64186;SDS011;50491;39.484;-8.540;2023-01-10T02:52:57;12.57;;;7.60;;
64186;SDS011;50491;39.484;-8.540;2023-01-10T02:55:00;17.10;;;8.93;;
64186;SDS011;50491;39.484;-8.540;2023-01-10T03:00:08;9.48;;;7.18;;
64186;SDS011;50491;39.484;-8.540;2023-01-10T03:04:49;12.55;;;8.02;;
64186;SDS011;50491;39.484;-8.540;2023-01-10T03:07:13;10.60;;;7.72;;
64186;SDS011;50491;39.484;-8.540;2023-01-10T03:14:27;12.15;;;7.50;;
64186;SDS011;50491;39.484;-8.540;2023-01-10T03:16:52;16.95;;;8.18;;
64186;SDS011;50491;39.484;-8.540;2023-01-10T03:21:24;14.25;;;7.55;;
64186;SDS011;50491;39.484;-8.540;2023-01-10T03:25:31;13.00;;;8.02;;
64186;SDS011;50491;39.484;-8.540;2023-01-10T03:30:16;17.88;;;7.75;;
64186;SDS011;50491;39.484;-8.540;2023-01-10T03:32:20;12.68;;;7.70;;
64186;SDS011;50491;39.484;-8.540;2023-01-10T03:34:24;11.45;;;7.68;;
64186;SDS011;50491;39.484;-8.540;2023-01-10T03:38:56;16.08;;;8.48;;
64186;SDS011;50491;39.484;-8.540;2023-01-10T03:45:35;11.50;;;7.90;;
64186;SDS011;50491;39.484;-8.540;2023-01-10T03:47:41;13.38;;;7.93;;
64186;SDS011;50491;39.484;-8.540;2023-01-10T03:49:47;10.23;;;8.13;;
64186;SDS011;50491;39.484;-8.540;2023-01-10T03:51:53;10.95;;;6.80;;
64186;SDS011;50491;39.484;-8.540;2023-01-10T03:55:59;18.30;;;7.82;;
64186;SDS011;50491;39.484;-8.540;2023-01-10T03:58:03;14.00;;;8.35;;
64186;SDS011;50491;39.484;-8.540;2023-01-10T04:00:22;20.42;;;8.52;;
64186;SDS011;50491;39.484;-8.540;2023-01-10T04:02:30;19.70;;;9.50;;
64186;SDS011;50491;39.484;-8.540;2023-01-10T04:04:31;11.88;;;7.82;;
64186;SDS011;50491;39.484;-8.540;2023-01-10T04:06:31;14.93;;;7.78;;
64186;SDS011;50491;39.484;-8.540;2023-01-10T04:08:51;13.88;;;7.60;;
64186;SDS011;50491;39.484;-8.540;2023-01-10T04:10:51;21.20;;;9.05;;
64186;SDS011;50491;39.484;-8.540;2023-01-10T04:12:52;14.75;;;7.97;;
64186;SDS011;50491;39.484;-8.540;2023-01-10T04:14:58;14.73;;;9.38;;
64186;SDS011;50491;39.484;-8.540;2023-01-10T04:17:02;13.52;;;8.20;;
64186;SDS011;50491;39.484;-8.540;2023-01-10T04:19:09;13.68;;;8.35;;
64186;SDS011;50491;39.484;-8.540;2023-01-10T04:21:12;13.88;;;7.55;;
64186;SDS011;50491;39.484;-8.540;2023-01-10T04:23:16;14.82;;;8.10;;
64186;SDS011;50491;39.484;-8.540;2023-01-10T04:25:35;12.75;;;8.65;;
64186;SDS011;50491;39.484;-8.540;2023-01-10T04:27:36;13.13;;;7.80;;
64186;SDS011;50491;39.484;-8.540;2023-01-10T04:29:49;13.00;;;7.78;;
64186;SDS011;50491;39.484;-8.540;2023-01-10T04:31:54;12.98;;;7.63;;
64186;SDS011;50491;39.484;-8.540;2023-01-10T04:33:58;11.27;;;7.72;;
64186;SDS011;50491;39.484;-8.540;2023-01-10T04:35:59;12.48;;;7.93;;
64186;SDS011;50491;39.484;-8.540;2023-01-10T04:38:09;12.70;;;8.32;;
64186;SDS011;50491;39.484;-8.540;2023-01-10T04:40:13;17.10;;;8.45;;
64186;SDS011;50491;39.484;-8.540;2023-01-10T04:42:16;14.25;;;7.90;;
64186;SDS011;50491;39.484;-8.540;2023-01-10T04:44:35;12.80;;;8.48;;
64186;SDS011;50491;39.484;-8.540;2023-01-10T04:46:39;11.52;;;8.13;;
64186;SDS011;50491;39.484;-8.540;2023-01-10T04:49:02;14.65;;;8.70;;
64186;SDS011;50491;39.484;-8.540;2023-01-10T04:51:05;16.20;;;8.80;;
64186;SDS011;50491;39.484;-8.540;2023-01-10T04:55:30;12.77;;;8.57;;
64186;SDS011;50491;39.484;-8.540;2023-01-10T05:02:48;17.58;;;9.63;;
64186;SDS011;50491;39.484;-8.540;2023-01-10T05:05:14;11.85;;;8.70;;
64186;SDS011;50491;39.484;-8.540;2023-01-10T05:12:49;19.05;;;10.63;;
64186;SDS011;50491;39.484;-8.540;2023-01-10T05:14:57;15.15;;;9.88;;
64186;SDS011;50491;39.484;-8.540;2023-01-10T05:16:58;14.10;;;9.93;;
64186;SDS011;50491;39.484;-8.540;2023-01-10T05:19:04;14.90;;;9.27;;
64186;SDS011;50491;39.484;-8.540;2023-01-10T05:23:46;17.83;;;9.68;;
64186;SDS011;50491;39.484;-8.540;2023-01-10T05:25:47;14.60;;;9.45;;
64186;SDS011;50491;39.484;-8.540;2023-01-10T05:27:48;16.02;;;9.02;;
64186;SDS011;50491;39.484;-8.540;2023-01-10T05:29:48;14.70;;;9.68;;
64186;SDS011;50491;39.484;-8.540;2023-01-10T05:34:24;16.08;;;9.68;;
64186;SDS011;50491;39.484;-8.540;2023-01-10T05:36:26;16.40;;;9.75;;
64186;SDS011;50491;39.484;-8.540;2023-01-10T05:38:27;15.32;;;10.40;;
64186;SDS011;50491;39.484;-8.540;2023-01-10T05:40:36;15.82;;;10.18;;
64186;SDS011;50491;39.484;-8.540;2023-01-10T05:42:37;19.63;;;10.88;;
64186;SDS011;50491;39.484;-8.540;2023-01-10T05:44:42;14.27;;;9.38;;
64186;SDS011;50491;39.484;-8.540;2023-01-10T05:46:43;20.25;;;10.52;;
64186;SDS011;50491;39.484;-8.540;2023-01-10T05:49:04;14.93;;;10.18;;
64186;SDS011;50491;39.484;-8.540;2023-01-10T05:51:25;16.27;;;10.25;;
64186;SDS011;50491;39.484;-8.540;2023-01-10T05:53:26;12.75;;;9.00;;
64186;SDS011;50491;39.484;-8.540;2023-01-10T05:55:29;15.02;;;8.70;;
64186;SDS011;50491;39.484;-8.540;2023-01-10T05:57:29;15.57;;;9.98;;
64186;SDS011;50491;39.484;-8.540;2023-01-10T05:59:49;17.52;;;10.20;;
64186;SDS011;50491;39.484;-8.540;2023-01-10T06:01:50;14.93;;;9.73;;
64186;SDS011;50491;39.484;-8.540;2023-01-10T06:03:51;11.95;;;8.70;;
64186;SDS011;50491;39.484;-8.540;2023-01-10T06:05:54;16.30;;;9.25;;
64186;SDS011;50491;39.484;-8.540;2023-01-10T06:07:55;15.75;;;9.73;;
64186;SDS011;50491;39.484;-8.540;2023-01-10T06:09:56;16.58;;;8.80;;
64186;SDS011;50491;39.484;-8.540;2023-01-10T06:12:16;14.57;;;8.98;;
64186;SDS011;50491;39.484;-8.540;2023-01-10T06:14:18;22.10;;;10.43;;
64186;SDS011;50491;39.484;-8.540;2023-01-10T06:16:19;13.93;;;9.10;;
64186;SDS011;50491;39.484;-8.540;2023-01-10T06:18:20;13.82;;;9.70;;
64186;SDS011;50491;39.484;-8.540;2023-01-10T06:20:21;14.52;;;9.15;;
64186;SDS011;50491;39.484;-8.540;2023-01-10T06:22:41;12.38;;;9.40;;
64186;SDS011;50491;39.484;-8.540;2023-01-10T06:24:44;14.13;;;10.25;;
64186;SDS011;50491;39.484;-8.540;2023-01-10T06:27:06;19.88;;;9.75;;
64186;SDS011;50491;39.484;-8.540;2023-01-10T06:29:07;21.13;;;10.70;;
64186;SDS011;50491;39.484;-8.540;2023-01-10T06:31:08;17.27;;;9.63;;
64186;SDS011;50491;39.484;-8.540;2023-01-10T06:33:09;16.30;;;9.57;;
64186;SDS011;50491;39.484;-8.540;2023-01-10T06:35:10;24.17;;;10.23;;
64186;SDS011;50491;39.484;-8.540;2023-01-10T06:37:13;17.55;;;9.38;;
64186;SDS011;50491;39.484;-8.540;2023-01-10T06:39:14;13.70;;;9.35;;
64186;SDS011;50491;39.484;-8.540;2023-01-10T06:41:15;17.55;;;9.57;;
64186;SDS011;50491;39.484;-8.540;2023-01-10T06:43:34;15.57;;;9.07;;
64186;SDS011;50491;39.484;-8.540;2023-01-10T06:48:31;16.38;;;10.23;;
64186;SDS011;50491;39.484;-8.540;2023-01-10T06:56:09;15.07;;;9.90;;
64186;SDS011;50491;39.484;-8.540;2023-01-10T07:02:49;14.60;;;9.25;;
64186;SDS011;50491;39.484;-8.540;2023-01-10T07:04:52;15.13;;;9.43;;
64186;SDS011;50491;39.484;-8.540;2023-01-10T07:06:53;18.70;;;9.23;;
64186;SDS011;50491;39.484;-8.540;2023-01-10T07:08:56;14.43;;;9.45;;
64186;SDS011;50491;39.484;-8.540;2023-01-10T07:10:57;10.55;;;7.75;;
64186;SDS011;50491;39.484;-8.540;2023-01-10T07:12:58;14.10;;;8.93;;
64186;SDS011;50491;39.484;-8.540;2023-01-10T07:15:18;15.68;;;9.23;;
64186;SDS011;50491;39.484;-8.540;2023-01-10T07:17:20;13.00;;;9.15;;
64186;SDS011;50491;39.484;-8.540;2023-01-10T07:19:21;16.80;;;8.60;;
64186;SDS011;50491;39.484;-8.540;2023-01-10T07:26:16;14.43;;;9.25;;
64186;SDS011;50491;39.484;-8.540;2023-01-10T07:28:18;14.57;;;9.55;;
64186;SDS011;50491;39.484;-8.540;2023-01-10T07:30:37;13.80;;;9.18;;
64186;SDS011;50491;39.484;-8.540;2023-01-10T07:32:40;15.38;;;8.93;;
64186;SDS011;50491;39.484;-8.540;2023-01-10T07:34:43;17.08;;;8.98;;
64186;SDS011;50491;39.484;-8.540;2023-01-10T07:36:44;17.60;;;8.60;;
64186;SDS011;50491;39.484;-8.540;2023-01-10T07:38:50;14.75;;;8.75;;
64186;SDS011;50491;39.484;-8.540;2023-01-10T07:40:54;20.90;;;10.10;;
64186;SDS011;50491;39.484;-8.540;2023-01-10T07:42:58;15.88;;;9.77;;
64186;SDS011;50491;39.484;-8.540;2023-01-10T07:45:20;13.20;;;8.32;;
64186;SDS011;50491;39.484;-8.540;2023-01-10T07:47:23;17.33;;;9.45;;
64186;SDS011;50491;39.484;-8.540;2023-01-10T07:49:49;16.40;;;8.68;;
64186;SDS011;50491;39.484;-8.540;2023-01-10T07:51:58;18.17;;;10.10;;
64186;SDS011;50491;39.484;-8.540;2023-01-10T07:54:12;15.93;;;9.55;;
64186;SDS011;50491;39.484;-8.540;2023-01-10T07:56:27;16.10;;;10.02;;
64186;SDS011;50491;39.484;-8.540;2023-01-10T07:58:54;21.45;;;10.43;;
64186;SDS011;50491;39.484;-8.540;2023-01-10T08:01:08;15.95;;;10.32;;
64186;SDS011;50491;39.484;-8.540;2023-01-10T08:03:14;15.20;;;9.48;;
64186;SDS011;50491;39.484;-8.540;2023-01-10T08:05:17;16.33;;;10.05;;
64186;SDS011;50491;39.484;-8.540;2023-01-10T08:07:23;16.25;;;10.77;;
64186;SDS011;50491;39.484;-8.540;2023-01-10T08:09:41;18.40;;;10.00;;
64186;SDS011;50491;39.484;-8.540;2023-01-10T08:11:46;15.75;;;9.73;;
64186;SDS011;50491;39.484;-8.540;2023-01-10T08:13:51;14.13;;;9.63;;
64186;SDS011;50491;39.484;-8.540;2023-01-10T08:15:55;20.67;;;11.10;;
64186;SDS011;50491;39.484;-8.540;2023-01-10T08:18:14;13.80;;;8.63;;
64186;SDS011;50491;39.484;-8.540;2023-01-10T08:20:20;24.02;;;10.55;;
64186;SDS011;50491;39.484;-8.540;2023-01-10T08:22:50;18.42;;;11.00;;
64186;SDS011;50491;39.484;-8.540;2023-01-10T08:24:56;15.52;;;10.23;;
64186;SDS011;50491;39.484;-8.540;2023-01-10T08:27:00;15.85;;;10.10;;
64186;SDS011;50491;39.484;-8.540;2023-01-10T08:29:10;19.25;;;10.63;;
64186;SDS011;50491;39.484;-8.540;2023-01-10T08:31:23;21.40;;;10.40;;
64186;SDS011;50491;39.484;-8.540;2023-01-10T08:33:29;20.80;;;11.48;;
64186;SDS011;50491;39.484;-8.540;2023-01-10T08:35:38;21.05;;;11.60;;
64186;SDS011;50491;39.484;-8.540;2023-01-10T08:37:49;16.90;;;11.05;;
64186;SDS011;50491;39.484;-8.540;2023-01-10T08:39:57;16.80;;;10.05;;
64186;SDS011;50491;39.484;-8.540;2023-01-10T08:42:04;16.58;;;11.20;;
64186;SDS011;50491;39.484;-8.540;2023-01-10T08:44:07;21.42;;;11.05;;
64186;SDS011;50491;39.484;-8.540;2023-01-10T08:46:13;22.58;;;11.90;;
64186;SDS011;50491;39.484;-8.540;2023-01-10T08:48:36;18.90;;;10.82;;
64186;SDS011;50491;39.484;-8.540;2023-01-10T08:50:56;19.45;;;12.30;;
64186;SDS011;50491;39.484;-8.540;2023-01-10T08:52:59;23.05;;;11.95;;
64186;SDS011;50491;39.484;-8.540;2023-01-10T08:55:37;18.70;;;11.40;;
64186;SDS011;50491;39.484;-8.540;2023-01-10T08:58:03;27.98;;;11.07;;
64186;SDS011;50491;39.484;-8.540;2023-01-10T09:00:24;16.23;;;10.35;;
64186;SDS011;50491;39.484;-8.540;2023-01-10T09:02:43;19.95;;;10.13;;
64186;SDS011;50491;39.484;-8.540;2023-01-10T09:05:11;17.90;;;10.27;;
64186;SDS011;50491;39.484;-8.540;2023-01-10T09:07:37;21.17;;;10.25;;
64186;SDS011;50491;39.484;-8.540;2023-01-10T09:09:42;19.42;;;10.20;;
64186;SDS011;50491;39.484;-8.540;2023-01-10T09:11:46;16.27;;;10.30;;
64186;SDS011;50491;39.484;-8.540;2023-01-10T09:14:00;21.45;;;8.88;;
64186;SDS011;50491;39.484;-8.540;2023-01-10T09:16:14;16.73;;;9.57;;
64186;SDS011;50491;39.484;-8.540;2023-01-10T09:18:24;17.20;;;10.88;;
64186;SDS011;50491;39.484;-8.540;2023-01-10T09:20:28;16.20;;;9.45;;
64186;SDS011;50491;39.484;-8.540;2023-01-10T09:22:51;18.58;;;10.55;;
64186;SDS011;50491;39.484;-8.540;2023-01-10T09:25:07;15.57;;;10.18;;
64186;SDS011;50491;39.484;-8.540;2023-01-10T09:27:19;18.85;;;10.02;;
64186;SDS011;50491;39.484;-8.540;2023-01-10T09:29:39;20.27;;;10.23;;
64186;SDS011;50491;39.484;-8.540;2023-01-10T09:31:47;25.10;;;9.88;;
64186;SDS011;50491;39.484;-8.540;2023-01-10T09:37:15;15.15;;;8.57;;
64186;SDS011;50491;39.484;-8.540;2023-01-10T09:39:37;14.27;;;8.60;;
64186;SDS011;50491;39.484;-8.540;2023-01-10T09:41:59;14.73;;;9.10;;
64186;SDS011;50491;39.484;-8.540;2023-01-10T09:44:29;17.27;;;8.75;;
64186;SDS011;50491;39.484;-8.540;2023-01-10T09:47:11;18.40;;;8.88;;
64186;SDS011;50491;39.484;-8.540;2023-01-10T09:52:23;12.52;;;8.25;;
64186;SDS011;50491;39.484;-8.540;2023-01-10T09:54:41;12.93;;;8.57;;
64186;SDS011;50491;39.484;-8.540;2023-01-10T09:56:45;12.10;;;8.60;;
64186;SDS011;50491;39.484;-8.540;2023-01-10T09:58:57;11.45;;;8.20;;
64186;SDS011;50491;39.484;-8.540;2023-01-10T10:01:11;15.30;;;9.03;;
64186;SDS011;50491;39.484;-8.540;2023-01-10T10:05:42;14.10;;;8.38;;
64186;SDS011;50491;39.484;-8.540;2023-01-10T10:08:04;12.95;;;7.47;;
64186;SDS011;50491;39.484;-8.540;2023-01-10T10:10:21;12.50;;;7.53;;
64186;SDS011;50491;39.484;-8.540;2023-01-10T10:20:25;11.75;;;7.47;;
64186;SDS011;50491;39.484;-8.540;2023-01-10T10:28:32;12.75;;;8.23;;
64186;SDS011;50491;39.484;-8.540;2023-01-10T10:36:56;16.08;;;8.30;;
64186;SDS011;50491;39.484;-8.540;2023-01-10T10:42:14;11.68;;;7.07;;
64186;SDS011;50491;39.484;-8.540;2023-01-10T10:47:16;18.90;;;8.40;;
64186;SDS011;50491;39.484;-8.540;2023-01-10T10:51:51;12.93;;;8.93;;
64186;SDS011;50491;39.484;-8.540;2023-01-10T10:53:53;15.30;;;9.35;;
64186;SDS011;50491;39.484;-8.540;2023-01-10T10:56:03;13.05;;;8.27;;
64186;SDS011;50491;39.484;-8.540;2023-01-10T11:01:45;15.53;;;8.87;;
64186;SDS011;50491;39.484;-8.540;2023-01-10T11:03:51;16.13;;;9.02;;
64186;SDS011;50491;39.484;-8.540;2023-01-10T11:05:56;25.25;;;10.52;;
64186;SDS011;50491;39.484;-8.540;2023-01-10T11:08:26;17.88;;;9.45;;
64186;SDS011;50491;39.484;-8.540;2023-01-10T11:10:29;13.95;;;8.13;;
64186;SDS011;50491;39.484;-8.540;2023-01-10T11:12:53;14.00;;;8.63;;
64186;SDS011;50491;39.484;-8.540;2023-01-10T11:17:54;18.38;;;8.48;;
64186;SDS011;50491;39.484;-8.540;2023-01-10T11:20:15;16.63;;;8.55;;
64186;SDS011;50491;39.484;-8.540;2023-01-10T11:22:48;12.43;;;8.13;;
64186;SDS011;50491;39.484;-8.540;2023-01-10T11:24:54;10.95;;;7.40;;
64186;SDS011;50491;39.484;-8.540;2023-01-10T11:33:17;14.20;;;10.07;;
64186;SDS011;50491;39.484;-8.540;2023-01-10T11:35:38;14.68;;;8.52;;
64186;SDS011;50491;39.484;-8.540;2023-01-10T11:37:44;14.75;;;8.48;;
64186;SDS011;50491;39.484;-8.540;2023-01-10T11:40:17;15.90;;;9.13;;
64186;SDS011;50491;39.484;-8.540;2023-01-10T11:42:43;16.88;;;8.88;;
64186;SDS011;50491;39.484;-8.540;2023-01-10T11:44:44;14.68;;;8.38;;
64186;SDS011;50491;39.484;-8.540;2023-01-10T11:47:13;12.80;;;8.13;;
64186;SDS011;50491;39.484;-8.540;2023-01-10T11:49:25;14.13;;;8.90;;
64186;SDS011;50491;39.484;-8.540;2023-01-10T11:51:50;13.65;;;8.32;;
64186;SDS011;50491;39.484;-8.540;2023-01-10T11:54:13;15.02;;;8.60;;
64186;SDS011;50491;39.484;-8.540;2023-01-10T11:59:16;12.32;;;8.23;;
64186;SDS011;50491;39.484;-8.540;2023-01-10T12:01:58;12.68;;;7.97;;
64186;SDS011;50491;39.484;-8.540;2023-01-10T12:04:12;12.02;;;7.63;;
64186;SDS011;50491;39.484;-8.540;2023-01-10T12:06:43;17.20;;;8.88;;
64186;SDS011;50491;39.484;-8.540;2023-01-10T12:08:54;13.35;;;8.50;;
64186;SDS011;50491;39.484;-8.540;2023-01-10T12:13:53;12.90;;;8.57;;
64186;SDS011;50491;39.484;-8.540;2023-01-10T12:16:14;11.25;;;6.95;;
64186;SDS011;50491;39.484;-8.540;2023-01-10T12:18:30;11.75;;;7.00;;
64186;SDS011;50491;39.484;-8.540;2023-01-10T12:20:47;11.50;;;6.43;;
64186;SDS011;50491;39.484;-8.540;2023-01-10T12:26:02;9.50;;;5.30;;
64186;SDS011;50491;39.484;-8.540;2023-01-10T12:28:47;9.15;;;5.63;;
64186;SDS011;50491;39.484;-8.540;2023-01-10T12:30:59;9.55;;;5.68;;
64186;SDS011;50491;39.484;-8.540;2023-01-10T12:33:12;6.68;;;4.85;;
64186;SDS011;50491;39.484;-8.540;2023-01-10T12:35:45;11.35;;;5.30;;
64186;SDS011;50491;39.484;-8.540;2023-01-10T12:37:59;7.93;;;5.93;;
64186;SDS011;50491;39.484;-8.540;2023-01-10T12:40:38;13.98;;;6.13;;
64186;SDS011;50491;39.484;-8.540;2023-01-10T12:45:55;7.45;;;5.30;;
64186;SDS011;50491;39.484;-8.540;2023-01-10T12:51:29;12.30;;;5.57;;
64186;SDS011;50491;39.484;-8.540;2023-01-10T12:53:50;13.25;;;5.30;;
64186;SDS011;50491;39.484;-8.540;2023-01-10T12:56:12;6.40;;;5.25;;
64186;SDS011;50491;39.484;-8.540;2023-01-10T12:58:27;11.75;;;5.60;;
64186;SDS011;50491;39.484;-8.540;2023-01-10T13:01:05;8.95;;;5.50;;
64186;SDS011;50491;39.484;-8.540;2023-01-10T13:03:20;7.78;;;5.30;;
64186;SDS011;50491;39.484;-8.540;2023-01-10T13:05:35;11.18;;;6.13;;
64186;SDS011;50491;39.484;-8.540;2023-01-10T13:07:58;10.25;;;6.10;;
64186;SDS011;50491;39.484;-8.540;2023-01-10T13:11:13;11.25;;;6.10;;
64186;SDS011;50491;39.484;-8.540;2023-01-10T13:13:10;10.25;;;6.32;;
64186;SDS011;50491;39.484;-8.540;2023-01-10T13:15:37;9.98;;;6.25;;
64186;SDS011;50491;39.484;-8.540;2023-01-10T13:21:03;11.82;;;5.57;;
64186;SDS011;50491;39.484;-8.540;2023-01-10T13:23:31;17.45;;;6.18;;
64186;SDS011;50491;39.484;-8.540;2023-01-10T13:25:53;11.00;;;7.50;;
64186;SDS011;50491;39.484;-8.540;2023-01-10T13:28:17;10.38;;;6.20;;
64186;SDS011;50491;39.484;-8.540;2023-01-10T13:30:28;11.02;;;6.40;;
64186;SDS011;50491;39.484;-8.540;2023-01-10T13:33:03;14.90;;;7.85;;
64186;SDS011;50491;39.484;-8.540;2023-01-10T13:35:23;11.77;;;6.90;;
64186;SDS011;50491;39.484;-8.540;2023-01-10T13:37:44;27.52;;;6.82;;
64186;SDS011;50491;39.484;-8.540;2023-01-10T13:40:18;11.98;;;6.50;;
64186;SDS011;50491;39.484;-8.540;2023-01-10T13:50:49;9.88;;;6.38;;
64186;SDS011;50491;39.484;-8.540;2023-01-10T13:55:29;12.82;;;7.00;;
64186;SDS011;50491;39.484;-8.540;2023-01-10T13:58:01;9.77;;;6.43;;
64186;SDS011;50491;39.484;-8.540;2023-01-10T14:00:54;8.90;;;5.40;;
64186;SDS011;50491;39.484;-8.540;2023-01-10T14:05:57;8.18;;;5.70;;
64186;SDS011;50491;39.484;-8.540;2023-01-10T14:08:16;12.70;;;6.38;;
64186;SDS011;50491;39.484;-8.540;2023-01-10T14:10:25;10.65;;;6.32;;
64186;SDS011;50491;39.484;-8.540;2023-01-10T14:12:46;8.48;;;5.70;;
64186;SDS011;50491;39.484;-8.540;2023-01-10T14:18:27;14.73;;;6.13;;
64186;SDS011;50491;39.484;-8.540;2023-01-10T14:20:34;12.10;;;6.57;;
64186;SDS011;50491;39.484;-8.540;2023-01-10T14:22:38;9.27;;;5.97;;
64186;SDS011;50491;39.484;-8.540;2023-01-10T14:24:55;8.23;;;6.10;;
64186;SDS011;50491;39.484;-8.540;2023-01-10T14:27:36;9.68;;;5.90;;
64186;SDS011;50491;39.484;-8.540;2023-01-10T14:30:13;8.73;;;5.78;;
64186;SDS011;50491;39.484;-8.540;2023-01-10T14:32:38;6.70;;;5.05;;
64186;SDS011;50491;39.484;-8.540;2023-01-10T14:34:49;8.15;;;5.38;;
64186;SDS011;50491;39.484;-8.540;2023-01-10T14:37:22;9.77;;;5.85;;
64186;SDS011;50491;39.484;-8.540;2023-01-10T14:39:28;8.05;;;5.65;;
64186;SDS011;50491;39.484;-8.540;2023-01-10T14:41:38;9.93;;;5.45;;
64186;SDS011;50491;39.484;-8.540;2023-01-10T14:44:05;10.10;;;5.75;;
64186;SDS011;50491;39.484;-8.540;2023-01-10T14:49:35;12.05;;;5.80;;
64186;SDS011;50491;39.484;-8.540;2023-01-10T14:52:19;8.90;;;6.22;;
64186;SDS011;50491;39.484;-8.540;2023-01-10T14:57:29;8.70;;;5.85;;
64186;SDS011;50491;39.484;-8.540;2023-01-10T14:59:35;8.27;;;6.28;;
64186;SDS011;50491;39.484;-8.540;2023-01-10T15:02:20;8.73;;;6.57;;
64186;SDS011;50491;39.484;-8.540;2023-01-10T15:04:53;9.65;;;6.35;;
64186;SDS011;50491;39.484;-8.540;2023-01-10T15:07:22;7.70;;;6.38;;
64186;SDS011;50491;39.484;-8.540;2023-01-10T15:09:34;13.82;;;7.63;;
64186;SDS011;50491;39.484;-8.540;2023-01-10T15:11:54;12.38;;;7.68;;
64186;SDS011;50491;39.484;-8.540;2023-01-10T15:14:00;11.43;;;6.95;;
64186;SDS011;50491;39.484;-8.540;2023-01-10T15:19:11;13.18;;;7.57;;
64186;SDS011;50491;39.484;-8.540;2023-01-10T15:21:40;13.45;;;8.10;;
64186;SDS011;50491;39.484;-8.540;2023-01-10T15:23:46;17.13;;;9.02;;
64186;SDS011;50491;39.484;-8.540;2023-01-10T15:25:56;13.27;;;9.05;;
64186;SDS011;50491;39.484;-8.540;2023-01-10T15:27:59;21.08;;;10.00;;
64186;SDS011;50491;39.484;-8.540;2023-01-10T15:30:21;15.90;;;9.18;;
64186;SDS011;50491;39.484;-8.540;2023-01-10T15:32:33;18.75;;;9.23;;
64186;SDS011;50491;39.484;-8.540;2023-01-10T15:34:59;14.77;;;8.35;;
64186;SDS011;50491;39.484;-8.540;2023-01-10T15:37:14;25.52;;;9.52;;
64186;SDS011;50491;39.484;-8.540;2023-01-10T15:39:21;16.20;;;9.35;;
64186;SDS011;50491;39.484;-8.540;2023-01-10T15:42:00;17.88;;;9.70;;
64186;SDS011;50491;39.484;-8.540;2023-01-10T15:47:32;15.20;;;9.45;;
64186;SDS011;50491;39.484;-8.540;2023-01-10T15:49:57;14.32;;;9.55;;
64186;SDS011;50491;39.484;-8.540;2023-01-10T15:51:58;19.50;;;11.63;;
64186;SDS011;50491;39.484;-8.540;2023-01-10T15:56:49;19.75;;;12.27;;
64186;SDS011;50491;39.484;-8.540;2023-01-10T15:58:57;18.20;;;11.48;;
64186;SDS011;50491;39.484;-8.540;2023-01-10T16:01:04;18.08;;;10.23;;
64186;SDS011;50491;39.484;-8.540;2023-01-10T16:05:53;23.23;;;14.73;;
64186;SDS011;50491;39.484;-8.540;2023-01-10T16:08:17;20.30;;;12.38;;
64186;SDS011;50491;39.484;-8.540;2023-01-10T16:10:35;15.38;;;10.88;;
64186;SDS011;50491;39.484;-8.540;2023-01-10T16:12:40;19.63;;;13.23;;
64186;SDS011;50491;39.484;-8.540;2023-01-10T16:15:00;16.23;;;10.05;;
64186;SDS011;50491;39.484;-8.540;2023-01-10T16:17:08;15.57;;;9.63;;
64186;SDS011;50491;39.484;-8.540;2023-01-10T16:19:36;11.63;;;8.00;;
64186;SDS011;50491;39.484;-8.540;2023-01-10T16:21:38;13.43;;;8.98;;
64186;SDS011;50491;39.484;-8.540;2023-01-10T16:23:43;16.23;;;9.68;;
64186;SDS011;50491;39.484;-8.540;2023-01-10T16:26:12;19.33;;;11.13;;